< Typhoon 199105 1991 Season Typhoon 199107 >
Typhoon 199106 (ZEKE)
General InformationTrack Information on Google MapsDetailed Wind InformationList of All Images || Disaster Info.ResourceGoogle EarthGE AnimationAtom FeedGeoJSON
Detalied Best Track (Time Zone = UTC)
Year Month Day Hour Lat. Long. Pressure (hPa) Wind (kt) Class Image Chart
1991 7 9 06 11.7 126.0 1004 0 2 Image Chart
1991 7 9 12 12.3 125.0 1002 0 2 Image Chart
1991 7 9 18 13.0 124.0 1000 0 2 Image Chart
1991 7 10 00 13.5 122.5 1000 0 2 Image Chart
1991 7 10 06 13.8 121.1 998 0 2 Image Chart
1991 7 10 12 13.9 120.1 998 0 2 Image Chart
1991 7 10 18 14.5 118.8 996 35 3 Image Chart
1991 7 11 00 15.1 117.0 992 45 3 Image Chart
1991 7 11 06 15.4 115.6 990 50 4 Image Chart
1991 7 11 12 15.5 114.8 985 50 4 Image Chart
1991 7 11 18 15.9 114.0 980 55 4 Image Chart
1991 7 12 00 16.4 113.2 975 60 4 Image Chart
1991 7 12 06 17.0 112.6 970 65 5 Image Chart
1991 7 12 12 17.8 111.8 970 65 5 Image Chart
1991 7 12 18 18.4 110.8 970 65 5 Image Chart
1991 7 13 00 18.8 109.9 975 60 4 Image Chart
1991 7 13 06 19.4 109.3 975 60 4 Image Chart
1991 7 13 12 20.0 108.7 980 55 4 Image Chart
1991 7 13 18 20.5 107.4 980 55 4 Image Chart
1991 7 14 00 21.1 106.6 985 55 4 Image Chart
1991 7 14 06 21.4 105.8 990 40 3 Image Chart
1991 7 14 12 21.7 105.3 998 0 2 Image Chart
1991 7 14 18 22.2 104.0 1000 0 2 Image Chart
1991 7 15 00 22.2 103.0 1000 0 2 Image Chart
Japan Meteorological Agency Best Track Data | Correction Date : 1992-01-04
< Typhoon 199105 1991 Season Typhoon 199107 >

Help